Time;durP1;ratioP1;P1;durP2;ratioP2;P2;SDS_P1;SDS_P2;PMS_P1;PMS_P2;Temp;Humidity;BMP_temperature;BMP_pressure;BME280_temperature;BME280_humidity;BME280_pressure;Samples;Min_cycle;Max_cycle;Signal;HPM_P1;HPM_P2
2022/07/11 00:02:22;;;;;;;59.58;49.83;;;24.60;55.80;;;;;;5015835;27;90196;-56
2022/07/11 00:04:48;;;;;;;59.60;49.95;;;24.60;55.80;;;;;;5006245;27;95874;-56
2022/07/11 00:07:15;;;;;;;59.63;49.83;;;24.60;55.80;;;;;;5000408;27;90976;-55
2022/07/11 00:09:41;;;;;;;59.58;49.78;;;24.60;55.90;;;;;;5001798;27;95248;-55
2022/07/11 00:12:09;;;;;;;58.92;49.65;;;24.50;55.90;;;;;;5004884;27;90946;-57
2022/07/11 00:14:35;;;;;;;58.97;49.65;;;24.50;55.80;;;;;;5001916;27;92038;-56
2022/07/11 00:17:02;;;;;;;59.47;49.90;;;24.50;55.90;;;;;;4999045;27;89808;-57
2022/07/11 00:19:27;;;;;;;60.35;49.67;;;24.50;55.90;;;;;;5008034;27;91220;-57
2022/07/11 00:21:53;;;;;;;59.42;49.55;;;24.50;55.80;;;;;;5000274;27;90621;-57
2022/07/11 00:24:20;;;;;;;59.03;49.72;;;24.50;55.90;;;;;;4994206;27;94977;-55
2022/07/11 00:26:49;;;;;;;59.33;49.60;;;24.50;55.90;;;;;;5003622;27;89700;-56
2022/07/11 00:29:15;;;;;;;58.90;49.60;;;24.50;55.90;;;;;;4993868;27;94522;-57
2022/07/11 00:31:41;;;;;;;58.90;49.80;;;24.40;55.90;;;;;;4988712;27;91346;-56
2022/07/11 00:34:07;;;;;;;58.78;49.70;;;24.40;56.00;;;;;;4980999;27;92222;-55
2022/07/11 00:36:33;;;;;;;59.20;49.85;;;24.40;56.00;;;;;;4998429;27;93509;-57
2022/07/11 00:38:59;;;;;;;59.08;49.75;;;24.40;56.00;;;;;;5004755;27;89941;-57
2022/07/11 00:41:25;;;;;;;60.95;49.92;;;24.40;55.90;;;;;;4994023;27;92305;-53
2022/07/11 00:43:55;;;;;;;59.83;49.58;;;24.40;55.90;;;;;;4995242;27;91328;-57
2022/07/11 00:46:22;;;;;;;59.60;49.55;;;24.40;56.00;;;;;;4993816;27;91889;-55
2022/07/11 00:48:47;;;;;;;59.65;50.15;;;24.40;56.00;;;;;;5002535;27;90717;-57
2022/07/11 00:51:13;;;;;;;58.60;49.53;;;24.40;56.00;;;;;;4990450;27;92743;-57
2022/07/11 00:53:40;;;;;;;59.25;49.95;;;24.40;55.90;;;;;;4996257;27;90687;-57
2022/07/11 00:56:07;;;;;;;59.25;50.03;;;24.40;56.00;;;;;;5003198;27;91639;-56
2022/07/11 00:58:34;;;;;;;58.92;49.60;;;24.40;56.00;;;;;;5002113;27;89974;-57
2022/07/11 01:01:02;;;;;;;58.88;49.42;;;24.40;56.10;;;;;;5003410;27;90158;-57
2022/07/11 01:03:27;;;;;;;58.67;49.63;;;24.30;56.00;;;;;;5006089;27;90402;-57
2022/07/11 01:05:53;;;;;;;59.90;49.50;;;24.30;56.00;;;;;;5000725;27;94094;-56
2022/07/11 01:08:19;;;;;;;59.35;49.60;;;24.30;56.00;;;;;;5003679;27;91309;-55
2022/07/11 01:10:45;;;;;;;58.92;49.50;;;24.30;56.00;;;;;;4996665;27;91895;-56
2022/07/11 01:13:11;;;;;;;58.70;49.65;;;24.30;56.00;;;;;;4991981;27;91354;-56
2022/07/11 01:15:37;;;;;;;58.67;49.65;;;24.30;56.00;;;;;;5007067;27;90513;-55
2022/07/11 01:18:03;;;;;;;59.40;49.80;;;24.30;56.00;;;;;;5002138;27;92474;-57
2022/07/11 01:20:29;;;;;;;58.50;49.33;;;24.30;56.20;;;;;;4999866;27;90161;-57
2022/07/11 01:23:16;;;;;;;58.97;49.70;;;24.30;56.10;;;;;;4987678;27;94144;-56
2022/07/11 01:25:42;;;;;;;58.45;49.72;;;24.20;56.20;;;;;;4995890;27;92075;-57
2022/07/11 01:28:07;;;;;;;59.20;49.65;;;24.20;56.30;;;;;;5001730;27;90072;-57
2022/07/11 01:30:34;;;;;;;59.53;49.60;;;24.20;56.30;;;;;;4989977;27;94525;-55
2022/07/11 01:33:00;;;;;;;59.22;49.55;;;24.20;56.40;;;;;;4994178;27;91889;-56
2022/07/11 01:35:27;;;;;;;59.20;49.72;;;24.20;56.60;;;;;;4992690;27;94854;-57
2022/07/11 01:37:53;;;;;;;58.35;49.55;;;24.10;56.60;;;;;;5002585;27;90680;-57
2022/07/11 01:40:19;;;;;;;57.90;49.35;;;24.10;56.60;;;;;;4996644;27;90046;-57
2022/07/11 01:42:45;;;;;;;58.45;49.47;;;24.10;56.60;;;;;;5004368;27;91145;-57
2022/07/11 01:45:11;;;;;;;58.08;49.30;;;24.00;56.70;;;;;;5000011;27;92128;-52
2022/07/11 01:47:38;;;;;;;58.65;49.63;;;24.00;56.80;;;;;;5003462;27;90740;-57
2022/07/11 01:50:05;;;;;;;58.35;49.65;;;24.00;56.70;;;;;;5001256;27;89163;-55
2022/07/11 01:52:31;;;;;;;58.55;49.47;;;24.00;56.80;;;;;;5003489;27;91240;-57
2022/07/11 01:54:57;;;;;;;58.50;49.35;;;23.90;56.80;;;;;;4994975;27;94842;-57
2022/07/11 01:57:22;;;;;;;58.88;49.45;;;23.90;56.90;;;;;;4992046;27;95594;-56
2022/07/11 01:59:48;;;;;;;58.38;49.63;;;23.90;56.90;;;;;;5004564;27;90035;-56
2022/07/11 02:02:15;;;;;;;58.65;49.58;;;23.90;56.90;;;;;;5000458;27;92099;-55
2022/07/11 02:04:42;;;;;;;58.13;49.35;;;23.90;57.00;;;;;;5006962;27;91738;-57
2022/07/11 02:07:09;;;;;;;58.42;49.40;;;23.90;57.00;;;;;;4997315;27;92006;-56
2022/07/11 02:09:35;;;;;;;58.28;49.55;;;23.80;57.00;;;;;;4978166;27;89965;-57
2022/07/11 02:12:00;;;;;;;58.40;49.35;;;23.80;57.00;;;;;;5012211;27;91525;-57
2022/07/11 02:14:26;;;;;;;58.70;49.58;;;23.80;57.00;;;;;;5002628;27;91236;-57
2022/07/11 02:16:52;;;;;;;58.22;49.28;;;23.80;57.10;;;;;;4994600;27;91925;-56
2022/07/11 02:19:17;;;;;;;59.00;49.55;;;23.80;57.10;;;;;;4999804;27;90479;-55
2022/07/11 02:21:43;;;;;;;57.97;49.25;;;23.80;57.00;;;;;;5003514;27;92522;-57
2022/07/11 02:24:09;;;;;;;58.28;49.47;;;23.70;57.00;;;;;;5007281;27;93407;-54
2022/07/11 02:26:35;;;;;;;58.00;49.40;;;23.70;57.10;;;;;;5001132;27;90041;-57
2022/07/11 02:29:01;;;;;;;58.35;49.55;;;23.70;57.10;;;;;;4995390;27;94522;-55
2022/07/11 02:31:26;;;;;;;58.00;49.35;;;23.70;57.30;;;;;;4995908;27;91992;-57
2022/07/11 02:33:52;;;;;;;57.80;49.20;;;23.70;57.20;;;;;;5005101;27;91287;-55
2022/07/11 02:36:18;;;;;;;58.00;49.35;;;23.70;57.40;;;;;;4988015;27;95397;-52
2022/07/11 02:38:44;;;;;;;58.10;49.63;;;23.70;57.40;;;;;;4996788;27;90641;-54
2022/07/11 02:41:09;;;;;;;57.95;49.40;;;23.60;57.30;;;;;;5006879;27;90800;-56
2022/07/11 02:43:35;;;;;;;58.00;49.20;;;23.70;57.30;;;;;;4993476;27;91213;-56
2022/07/11 02:46:01;;;;;;;58.05;49.30;;;23.60;57.30;;;;;;4990133;27;92894;-55
2022/07/11 02:48:27;;;;;;;58.15;49.55;;;23.60;57.30;;;;;;5008080;27;91686;-55
2022/07/11 02:50:53;;;;;;;59.00;49.45;;;23.60;57.40;;;;;;5016654;27;91342;-54
2022/07/11 02:53:18;;;;;;;58.03;49.42;;;23.60;57.30;;;;;;5002393;27;92319;-55
2022/07/11 02:55:44;;;;;;;58.75;49.45;;;23.60;57.30;;;;;;4997492;27;94724;-57
2022/07/11 02:58:09;;;;;;;58.13;49.22;;;23.60;57.30;;;;;;4996247;27;90405;-56
2022/07/11 03:00:35;;;;;;;57.72;49.20;;;23.60;57.40;;;;;;4998397;27;89820;-57
2022/07/11 03:03:01;;;;;;;57.63;49.40;;;23.60;57.50;;;;;;4999357;27;90757;-57
2022/07/11 03:05:27;;;;;;;58.00;49.28;;;23.50;57.40;;;;;;4993558;27;91360;-56
2022/07/11 03:07:53;;;;;;;57.85;49.45;;;23.50;57.50;;;;;;5012358;27;89693;-58
2022/07/11 03:10:19;;;;;;;57.75;49.30;;;23.50;57.40;;;;;;5007763;27;91381;-57
2022/07/11 03:12:45;;;;;;;58.17;49.35;;;23.50;57.60;;;;;;5003343;27;91556;-57
2022/07/11 03:15:11;;;;;;;58.08;49.33;;;23.50;57.50;;;;;;4996153;27;90026;-57
2022/07/11 03:17:37;;;;;;;57.90;49.38;;;23.50;57.60;;;;;;4977697;27;91356;-57
2022/07/11 03:20:08;;;;;;;57.58;49.10;;;23.50;57.70;;;;;;4971907;27;92127;-55
2022/07/11 03:22:34;;;;;;;57.70;49.25;;;23.50;57.70;;;;;;4985917;27;91874;-57
2022/07/11 03:25:03;;;;;;;57.85;49.35;;;23.40;57.60;;;;;;5001224;27;93832;-56
2022/07/11 03:27:29;;;;;;;57.83;49.15;;;23.40;57.70;;;;;;5006257;27;91448;-57
2022/07/11 03:29:54;;;;;;;58.78;49.58;;;23.40;57.80;;;;;;5002772;27;93717;-57
2022/07/11 03:32:21;;;;;;;59.55;49.28;;;23.40;57.70;;;;;;4989549;27;91066;-57
2022/07/11 03:37:31;;;;;;;58.28;49.75;;;23.40;57.80;;;;;;4999942;27;91167;-54
2022/07/11 03:39:56;;;;;;;57.88;49.35;;;23.40;57.70;;;;;;4975784;27;91777;-56
2022/07/11 03:42:22;;;;;;;58.47;49.53;;;23.40;57.80;;;;;;4994592;27;92536;-56
2022/07/11 03:44:48;;;;;;;57.67;49.22;;;23.40;57.80;;;;;;5009330;27;90775;-57
2022/07/11 03:47:13;;;;;;;57.92;49.40;;;23.40;57.80;;;;;;4986609;27;94726;-56
2022/07/11 03:49:39;;;;;;;58.13;49.10;;;23.30;57.80;;;;;;5002685;27;93182;-56
2022/07/11 03:52:05;;;;;;;58.15;49.28;;;23.30;57.80;;;;;;5002402;27;90020;-56
2022/07/11 03:54:30;;;;;;;59.63;49.72;;;23.30;57.80;;;;;;5007251;27;90391;-56
2022/07/11 03:56:56;;;;;;;58.22;49.45;;;23.30;57.80;;;;;;4999060;27;90226;-54
2022/07/11 03:59:22;;;;;;;57.85;49.35;;;23.30;57.80;;;;;;4994253;27;91868;-57
2022/07/11 04:01:47;;;;;;;57.65;49.15;;;23.30;57.80;;;;;;5009685;27;91248;-55
2022/07/11 04:04:13;;;;;;;58.13;49.15;;;23.20;57.80;;;;;;5007492;27;90569;-54
2022/07/11 04:06:39;;;;;;;57.83;49.22;;;23.20;57.80;;;;;;4986699;27;95725;-57
2022/07/11 04:09:04;;;;;;;57.63;49.33;;;23.20;57.90;;;;;;4967951;27;91495;-57
2022/07/11 04:11:30;;;;;;;57.58;49.28;;;23.20;58.40;;;;;;4994745;27;96357;-54
2022/07/11 04:13:56;;;;;;;59.50;49.25;;;23.20;57.80;;;;;;4999263;27;91663;-57
2022/07/11 04:16:22;;;;;;;58.50;49.55;;;23.20;57.80;;;;;;5005174;27;94079;-56
2022/07/11 04:18:47;;;;;;;58.28;49.55;;;23.20;57.80;;;;;;5000411;27;90716;-57
2022/07/11 04:21:13;;;;;;;57.80;49.47;;;23.20;57.80;;;;;;4992691;27;91467;-57
2022/07/11 04:23:39;;;;;;;57.83;49.35;;;23.20;57.70;;;;;;4999645;27;95144;-57
2022/07/11 04:26:08;;;;;;;59.75;49.58;;;23.20;57.70;;;;;;4998249;27;92376;-57
2022/07/11 04:28:33;;;;;;;57.67;49.55;;;23.20;57.70;;;;;;5005254;27;90415;-57
2022/07/11 04:30:59;;;;;;;58.03;49.38;;;23.20;58.20;;;;;;5005524;27;91450;-57
2022/07/11 04:33:24;;;;;;;57.65;49.53;;;23.30;57.60;;;;;;5000342;27;94320;-56
2022/07/11 04:35:50;;;;;;;57.78;49.25;;;23.30;57.60;;;;;;5002509;27;93052;-57
2022/07/11 04:38:16;;;;;;;58.22;49.63;;;23.40;57.50;;;;;;5003730;27;90243;-55
2022/07/11 04:40:42;;;;;;;58.10;49.65;;;23.40;57.30;;;;;;4985803;27;90801;-57
2022/07/11 04:43:08;;;;;;;58.70;49.47;;;23.40;57.20;;;;;;5003123;27;92744;-57
2022/07/11 04:45:33;;;;;;;58.42;49.55;;;23.50;57.10;;;;;;4988852;27;93016;-56
2022/07/11 04:48:01;;;;;;;58.00;49.55;;;23.40;57.00;;;;;;4997522;27;92796;-56
2022/07/11 04:50:27;;;;;;;58.22;49.45;;;23.50;56.90;;;;;;4998673;27;91044;-57
2022/07/11 04:52:52;;;;;;;57.75;49.35;;;23.50;56.90;;;;;;4997098;27;91798;-57
2022/07/11 04:55:18;;;;;;;57.90;49.28;;;23.50;56.80;;;;;;5007346;27;91155;-55
2022/07/11 04:57:44;;;;;;;58.15;49.63;;;23.50;56.80;;;;;;5009253;27;91898;-56
2022/07/11 05:00:10;;;;;;;57.63;49.45;;;23.50;56.80;;;;;;4999085;27;90964;-57
2022/07/11 05:02:36;;;;;;;58.58;49.85;;;23.50;56.70;;;;;;5005726;27;91212;-57
2022/07/11 05:05:01;;;;;;;58.90;49.97;;;23.60;56.70;;;;;;4989907;27;90873;-57
2022/07/11 05:07:27;;;;;;;57.97;49.35;;;23.60;56.60;;;;;;5001595;27;90466;-57
2022/07/11 05:09:53;;;;;;;57.85;49.47;;;23.60;56.50;;;;;;5004460;27;92064;-55
2022/07/11 05:12:20;;;;;;;58.28;49.72;;;23.60;56.50;;;;;;5005846;27;91041;-57
2022/07/11 05:14:45;;;;;;;57.90;49.33;;;23.60;56.40;;;;;;5010854;27;93850;-56
2022/07/11 05:17:11;;;;;;;58.05;49.15;;;23.60;56.50;;;;;;4993870;27;91729;-55
2022/07/11 05:19:36;;;;;;;58.08;49.53;;;23.60;56.90;;;;;;4996092;27;93139;-55
2022/07/11 05:22:02;;;;;;;59.75;49.55;;;23.70;56.70;;;;;;4993510;27;93893;-55
2022/07/11 05:24:28;;;;;;;58.05;49.45;;;23.70;56.60;;;;;;4989105;27;92524;-57
2022/07/11 05:26:54;;;;;;;58.35;49.45;;;23.70;56.50;;;;;;4994967;27;95260;-56
2022/07/11 05:29:19;;;;;;;58.80;49.72;;;23.70;56.50;;;;;;5000544;27;91262;-56
2022/07/11 05:31:50;;;;;;;57.95;49.50;;;23.80;56.40;;;;;;5008820;27;90932;-57
2022/07/11 05:34:18;;;;;;;58.15;49.63;;;23.80;56.30;;;;;;4996359;27;91033;-57
2022/07/11 05:36:44;;;;;;;58.45;49.60;;;23.80;56.30;;;;;;5004073;27;92956;-55
2022/07/11 05:39:10;;;;;;;58.60;49.55;;;23.80;56.20;;;;;;5004818;27;93768;-53
2022/07/11 05:41:35;;;;;;;58.72;49.65;;;23.80;56.20;;;;;;5002517;27;91388;-54
2022/07/11 05:44:01;;;;;;;59.03;49.55;;;23.80;56.20;;;;;;4998410;27;91030;-54
2022/07/11 05:46:27;;;;;;;58.60;49.60;;;23.80;56.30;;;;;;4999466;27;95201;-57
2022/07/11 05:48:52;;;;;;;58.70;49.75;;;23.80;56.20;;;;;;4998042;27;93448;-54
2022/07/11 05:51:18;;;;;;;57.95;49.47;;;23.80;56.20;;;;;;4996820;27;94570;-56
2022/07/11 05:53:44;;;;;;;62.47;49.85;;;23.80;56.20;;;;;;4996369;27;94576;-57
2022/07/11 05:56:10;;;;;;;58.78;49.92;;;23.80;55.80;;;;;;5000761;27;90731;-54
2022/07/11 05:58:36;;;;;;;60.55;49.90;;;23.80;56.20;;;;;;4988095;27;90562;-57
2022/07/11 06:01:01;;;;;;;60.40;50.05;;;23.80;56.20;;;;;;5004605;27;91274;-56
2022/07/11 06:03:27;;;;;;;60.38;50.25;;;23.80;56.30;;;;;;5001207;27;94475;-56
2022/07/11 06:05:52;;;;;;;59.10;49.97;;;23.80;56.20;;;;;;4998927;27;90665;-57
2022/07/11 06:11:02;;;;;;;58.92;49.83;;;23.80;56.50;;;;;;4996001;27;90994;-57
2022/07/11 06:13:29;;;;;;;61.08;49.90;;;23.90;56.20;;;;;;5000730;27;90093;-55
2022/07/11 06:15:55;;;;;;;59.55;49.90;;;23.80;56.20;;;;;;4988683;27;90799;-57
2022/07/11 06:18:21;;;;;;;59.00;49.88;;;23.80;56.20;;;;;;4994007;27;96547;-54
2022/07/11 06:20:47;;;;;;;58.83;49.67;;;23.90;56.20;;;;;;4998142;27;92757;-57
2022/07/11 06:23:12;;;;;;;59.67;50.10;;;23.90;56.20;;;;;;4998301;27;90939;-57
2022/07/11 06:25:38;;;;;;;60.72;50.13;;;23.90;56.10;;;;;;4984492;27;93058;-57
2022/07/11 06:28:04;;;;;;;59.35;49.85;;;23.90;56.10;;;;;;5000758;27;90425;-56
2022/07/11 06:30:31;;;;;;;59.28;50.05;;;23.90;56.20;;;;;;5001647;27;90633;-53
2022/07/11 06:32:57;;;;;;;61.15;50.15;;;23.90;56.20;;;;;;5002967;27;93278;-56
2022/07/11 06:35:23;;;;;;;59.38;49.95;;;23.80;56.10;;;;;;5008307;27;90761;-55
2022/07/11 06:37:49;;;;;;;59.78;49.97;;;23.90;56.10;;;;;;5018281;27;91616;-56
2022/07/11 06:40:17;;;;;;;60.88;50.00;;;24.00;56.20;;;;;;5002196;27;90231;-56
2022/07/11 06:42:43;;;;;;;59.47;50.03;;;23.90;56.10;;;;;;4996947;27;89450;-52
2022/07/11 06:45:09;;;;;;;59.92;49.95;;;23.90;56.20;;;;;;4999247;27;91126;-56
2022/07/11 06:47:34;;;;;;;58.72;49.78;;;23.90;56.10;;;;;;5002660;27;90421;-57
2022/07/11 06:50:00;;;;;;;59.42;49.83;;;23.90;56.10;;;;;;5002970;27;93891;-57
2022/07/11 06:52:26;;;;;;;59.40;50.03;;;23.90;56.10;;;;;;4996779;27;89854;-55
2022/07/11 06:54:52;;;;;;;59.33;49.88;;;23.90;56.20;;;;;;5003268;27;91073;-56
2022/07/11 06:57:17;;;;;;;59.42;49.97;;;24.00;56.20;;;;;;5003004;27;90055;-56
2022/07/11 06:59:43;;;;;;;58.72;49.92;;;24.00;56.10;;;;;;4991100;27;90480;-53
2022/07/11 07:02:08;;;;;;;59.72;49.85;;;24.00;56.20;;;;;;5001371;27;92273;-56
2022/07/11 07:04:34;;;;;;;59.65;49.97;;;24.00;56.10;;;;;;5004235;27;93462;-57
2022/07/11 07:07:01;;;;;;;59.28;49.85;;;24.00;56.10;;;;;;4996793;27;90765;-57
2022/07/11 07:09:28;;;;;;;59.65;49.92;;;24.00;56.10;;;;;;4998731;27;91200;-57
2022/07/11 07:11:54;;;;;;;59.33;50.13;;;24.00;56.40;;;;;;4998059;27;94333;-54
2022/07/11 07:14:21;;;;;;;58.90;50.00;;;24.00;56.10;;;;;;5006962;27;90792;-57
2022/07/11 07:16:47;;;;;;;59.55;50.05;;;24.00;56.10;;;;;;5001100;27;92725;-56
2022/07/11 07:19:12;;;;;;;59.72;50.30;;;24.00;56.10;;;;;;5004223;27;89843;-57
2022/07/11 07:21:38;;;;;;;59.15;50.05;;;24.00;56.00;;;;;;5006550;27;91952;-56
2022/07/11 07:24:05;;;;;;;59.75;49.92;;;24.00;56.00;;;;;;4993380;27;93926;-57
2022/07/11 07:26:31;;;;;;;59.60;50.35;;;24.00;56.00;;;;;;4995438;27;91959;-56
2022/07/11 07:28:57;;;;;;;60.22;50.22;;;24.00;55.90;;;;;;5002472;27;92045;-51
2022/07/11 07:31:23;;;;;;;59.55;50.22;;;24.00;56.00;;;;;;5010895;27;92906;-53
2022/07/11 07:33:49;;;;;;;59.55;50.13;;;24.00;55.90;;;;;;5014086;27;97946;-54
2022/07/11 07:36:15;;;;;;;59.15;50.08;;;24.00;56.00;;;;;;4999225;27;94260;-57
2022/07/11 07:38:46;;;;;;;59.65;50.33;;;24.00;56.00;;;;;;5005644;27;90602;-53
2022/07/11 07:41:12;;;;;;;60.50;50.33;;;24.10;56.00;;;;;;4993425;27;95609;-56
2022/07/11 07:43:38;;;;;;;60.00;50.20;;;24.00;55.90;;;;;;4994854;27;90929;-55
2022/07/11 07:46:04;;;;;;;60.45;50.28;;;24.10;55.90;;;;;;5006684;27;93447;-55
2022/07/11 07:48:30;;;;;;;59.45;50.05;;;24.00;55.80;;;;;;4998818;27;90422;-54
2022/07/11 07:50:56;;;;;;;59.53;50.13;;;24.10;55.80;;;;;;5010314;27;91079;-53
2022/07/11 07:53:21;;;;;;;59.55;50.05;;;24.10;55.80;;;;;;5008755;27;90433;-53
2022/07/11 07:55:49;;;;;;;60.45;50.38;;;24.10;55.80;;;;;;5002647;27;89453;-56
2022/07/11 07:58:15;;;;;;;59.75;50.00;;;24.10;55.80;;;;;;4999909;27;94202;-55
2022/07/11 08:03:25;;;;;;;59.63;50.13;;;24.10;55.70;;;;;;5004915;27;92930;-56
2022/07/11 08:05:50;;;;;;;59.83;50.33;;;24.10;55.70;;;;;;4999637;27;93886;-55
2022/07/11 08:08:16;;;;;;;59.50;50.03;;;24.10;55.60;;;;;;4993818;27;90669;-58
2022/07/11 08:10:42;;;;;;;62.97;50.25;;;24.10;55.40;;;;;;5005018;27;95274;-60
2022/07/11 08:13:07;;;;;;;60.78;50.42;;;24.10;55.50;;;;;;4999987;27;91777;-57
2022/07/11 08:15:33;;;;;;;59.78;50.22;;;24.10;55.40;;;;;;4989392;27;90207;-57
2022/07/11 08:17:59;;;;;;;59.60;50.05;;;24.10;55.40;;;;;;5003121;27;90660;-54
2022/07/11 08:20:24;;;;;;;60.45;50.08;;;24.10;55.30;;;;;;4996703;27;94236;-57
2022/07/11 08:22:50;;;;;;;61.03;50.22;;;24.10;55.30;;;;;;4996315;27;90530;-56
2022/07/11 08:25:16;;;;;;;59.92;50.10;;;24.10;55.30;;;;;;5003294;27;93004;-56
2022/07/11 08:27:41;;;;;;;60.63;50.35;;;24.10;55.20;;;;;;5012653;27;91041;-57
2022/07/11 08:30:08;;;;;;;59.42;50.25;;;24.10;55.30;;;;;;5012113;27;90972;-56
2022/07/11 08:32:37;;;;;;;60.58;50.45;;;24.10;55.20;;;;;;5000597;27;90424;-53
2022/07/11 08:35:03;;;;;;;60.47;50.30;;;24.20;55.00;;;;;;4992753;27;90853;-55
2022/07/11 08:37:28;;;;;;;60.35;50.38;;;24.30;54.60;;;;;;4990971;27;90637;-56
2022/07/11 08:39:54;;;;;;;60.83;50.47;;;24.30;54.30;;;;;;5004760;27;92460;-56
2022/07/11 08:42:20;;;;;;;59.65;50.30;;;24.40;54.70;;;;;;4990074;27;90112;-54
2022/07/11 08:44:46;;;;;;;60.33;50.67;;;24.40;53.90;;;;;;4992762;27;89799;-55
2022/07/11 08:47:12;;;;;;;60.38;50.63;;;24.40;53.90;;;;;;4998345;27;89766;-55
2022/07/11 08:49:40;;;;;;;60.22;50.47;;;24.40;53.80;;;;;;5005071;27;90688;-52
2022/07/11 08:52:07;;;;;;;61.55;50.47;;;24.40;53.70;;;;;;4997370;27;91881;-54
2022/07/11 08:54:33;;;;;;;60.88;50.72;;;24.50;53.60;;;;;;4987162;27;93512;-53
2022/07/11 08:57:01;;;;;;;60.53;50.40;;;24.50;52.90;;;;;;4997229;27;92611;-52
2022/07/11 08:59:30;;;;;;;60.33;50.40;;;24.40;53.40;;;;;;4978397;27;91013;-53
2022/07/11 09:01:58;;;;;;;62.92;50.55;;;24.30;53.20;;;;;;4996985;27;93801;-54
2022/07/11 09:04:24;;;;;;;62.97;50.75;;;24.30;53.00;;;;;;4992173;27;90002;-50
2022/07/11 09:06:51;;;;;;;60.75;50.42;;;24.20;52.70;;;;;;5004723;27;90773;-49
2022/07/11 09:09:16;;;;;;;61.17;50.58;;;24.20;52.80;;;;;;5000653;27;88923;-52
2022/07/11 09:11:50;;;;;;;60.95;50.45;;;24.20;53.30;;;;;;5000449;27;91460;-52
2022/07/11 09:14:30;;;;;;;61.00;50.65;;;24.20;53.70;;;;;;4983748;27;92160;-55
2022/07/11 09:16:56;;;;;;;61.33;50.47;;;24.20;53.00;;;;;;4994379;27;91530;-55
2022/07/11 09:19:23;;;;;;;60.85;50.50;;;24.20;53.30;;;;;;4999649;27;90959;-51
2022/07/11 09:28:06;;;;;;;62.95;50.65;;;24.30;53.20;;;;;;5003283;27;91437;-49
2022/07/11 09:30:39;;;;;;;60.88;50.70;;;24.20;53.60;;;;;;4993166;27;91406;-53
2022/07/11 09:33:09;;;;;;;66.47;51.28;;;24.20;54.00;;;;;;4991906;27;92975;-54
2022/07/11 09:35:35;;;;;;;61.55;50.58;;;24.20;53.80;;;;;;4997402;27;89853;-50
2022/07/11 09:38:03;;;;;;;61.88;50.85;;;24.30;53.30;;;;;;4996948;27;90729;-49
2022/07/11 09:40:28;;;;;;;61.65;50.67;;;24.40;53.80;;;;;;5007885;27;95538;-51
2022/07/11 09:42:56;;;;;;;62.42;50.42;;;24.50;54.00;;;;;;5011828;27;91726;-55
2022/07/11 09:45:26;;;;;;;62.92;50.92;;;24.40;53.90;;;;;;4988104;27;91633;-53
2022/07/11 09:47:54;;;;;;;62.30;50.92;;;24.40;54.20;;;;;;4983916;27;94539;-52
2022/07/11 09:50:25;;;;;;;61.20;50.53;;;24.50;53.70;;;;;;4990044;27;90984;-52
2022/07/11 09:53:13;;;;;;;62.35;50.67;;;24.50;53.70;;;;;;4998862;27;90434;-55
2022/07/11 09:55:46;;;;;;;63.33;50.55;;;24.50;53.90;;;;;;4998304;27;91668;-52
2022/07/11 09:58:15;;;;;;;61.13;50.55;;;24.50;53.40;;;;;;5002148;27;90844;-54
2022/07/11 10:00:42;;;;;;;63.80;50.58;;;24.50;53.90;;;;;;4997098;27;89051;-54
2022/07/11 10:03:09;;;;;;;64.15;50.83;;;24.60;53.30;;;;;;4996147;27;94591;-53
2022/07/11 10:05:35;;;;;;;61.63;50.72;;;24.50;53.90;;;;;;5006994;27;91872;-54
2022/07/11 10:08:02;;;;;;;61.85;50.85;;;24.50;53.90;;;;;;4993967;27;92133;-55
2022/07/11 10:10:31;;;;;;;67.30;50.67;;;24.50;53.90;;;;;;5000500;27;90337;-54
2022/07/11 10:12:57;;;;;;;61.28;50.72;;;24.40;53.90;;;;;;4993362;27;90206;-51
2022/07/11 10:15:29;;;;;;;60.95;50.80;;;24.50;54.00;;;;;;4988897;27;91384;-50
2022/07/11 10:18:07;;;;;;;60.58;50.53;;;24.60;53.60;;;;;;4992101;27;91196;-52
2022/07/11 10:21:09;;;;;;;61.88;50.47;;;24.70;53.30;;;;;;4993909;27;91488;-52
2022/07/11 10:23:54;;;;;;;62.00;50.33;;;24.60;53.50;;;;;;5010492;27;90057;-52
2022/07/11 10:26:26;;;;;;;61.67;50.53;;;24.80;52.40;;;;;;4995537;27;90618;-55
2022/07/11 10:29:01;;;;;;;62.25;50.72;;;24.70;53.10;;;;;;4989951;27;94202;-53
2022/07/11 10:31:30;;;;;;;62.70;50.58;;;24.80;52.10;;;;;;4990011;27;92373;-52
2022/07/11 10:34:18;;;;;;;62.30;50.72;;;24.90;51.70;;;;;;4993789;27;94847;-48
2022/07/11 10:36:45;;;;;;;61.53;50.45;;;24.80;52.40;;;;;;4994834;27;91584;-52
2022/07/11 10:39:27;;;;;;;85.85;51.40;;;24.80;52.60;;;;;;5009613;27;92527;-54
2022/07/11 10:41:54;;;;;;;61.25;50.58;;;24.80;52.60;;;;;;4993797;27;90171;-55
2022/07/11 10:44:21;;;;;;;60.67;50.60;;;24.90;52.40;;;;;;4978353;27;91641;-54
2022/07/11 10:46:46;;;;;;;62.50;50.80;;;24.90;52.50;;;;;;4993666;27;90998;-52
2022/07/11 10:49:15;;;;;;;61.00;50.58;;;24.90;52.40;;;;;;5001951;27;90768;-52
2022/07/11 10:51:41;;;;;;;61.72;50.67;;;24.90;52.70;;;;;;4995003;27;90950;-51
2022/07/11 10:54:33;;;;;;;63.08;50.85;;;24.90;52.70;;;;;;4995964;27;94381;-51
2022/07/11 10:57:29;;;;;;;61.08;50.92;;;24.90;52.70;;;;;;4947194;27;91570;-52
2022/07/11 10:59:55;;;;;;;60.90;50.53;;;25.00;52.80;;;;;;4965067;27;91950;-53
2022/07/11 11:02:20;;;;;;;62.28;50.95;;;25.10;52.70;;;;;;4992443;27;90435;-51
2022/07/11 11:05:00;;;;;;;61.42;50.78;;;25.10;53.00;;;;;;4990500;27;94683;-56
2022/07/11 11:07:28;;;;;;;63.05;50.85;;;25.10;52.60;;;;;;5001317;27;90817;-52
2022/07/11 11:09:54;;;;;;;63.13;50.88;;;25.10;52.50;;;;;;5002069;27;90412;-53
2022/07/11 11:12:20;;;;;;;62.60;51.00;;;25.20;52.10;;;;;;4999126;27;92024;-51
2022/07/11 11:14:46;;;;;;;62.03;50.97;;;25.20;51.70;;;;;;5001892;27;92416;-52
2022/07/11 11:17:35;;;;;;;65.60;51.10;;;25.20;52.00;;;;;;5002071;27;89792;-48
2022/07/11 11:20:02;;;;;;;62.15;50.95;;;25.20;52.70;;;;;;4988798;27;90829;-50
2022/07/11 11:22:28;;;;;;;62.45;50.85;;;25.20;51.40;;;;;;4982786;27;92428;-49
2022/07/11 11:24:56;;;;;;;62.58;51.03;;;25.30;52.10;;;;;;4982324;27;91440;-54
2022/07/11 11:27:23;;;;;;;62.38;51.25;;;25.30;52.10;;;;;;4986657;27;91354;-50
2022/07/11 11:29:54;;;;;;;63.75;51.25;;;25.30;52.60;;;;;;5003672;27;89955;-52
2022/07/11 11:32:30;;;;;;;62.60;50.90;;;25.40;52.40;;;;;;4999669;27;92326;-54
2022/07/11 11:34:57;;;;;;;62.95;51.33;;;25.40;51.30;;;;;;5009009;27;90188;-49
2022/07/11 11:37:24;;;;;;;67.22;51.45;;;25.30;52.20;;;;;;4996779;27;91165;-50
2022/07/11 11:39:58;;;;;;;63.53;51.33;;;25.40;52.00;;;;;;4975077;27;91741;-53
2022/07/11 11:42:24;;;;;;;63.85;51.78;;;25.40;52.60;;;;;;5005882;27;89242;-49
2022/07/11 11:45:07;;;;;;;64.70;51.63;;;25.40;53.10;;;;;;5003732;27;91284;-54
2022/07/11 11:47:35;;;;;;;63.50;51.10;;;25.40;52.70;;;;;;4988494;27;94818;-49
2022/07/11 11:50:01;;;;;;;63.40;51.17;;;25.40;52.50;;;;;;4989797;27;92192;-53
2022/07/11 11:52:32;;;;;;;64.93;51.28;;;25.40;52.90;;;;;;4997542;27;90021;-50
2022/07/11 11:54:58;;;;;;;;;;;25.50;52.80;;;;;;4995434;27;92826;-48
2022/07/11 11:57:26;;;;;;;64.10;51.22;;;25.50;51.90;;;;;;4992048;27;93999;-53
2022/07/11 11:59:52;;;;;;;62.90;51.22;;;25.50;51.60;;;;;;4985875;27;93172;-54
2022/07/11 12:02:22;;;;;;;61.90;51.13;;;25.50;51.40;;;;;;5001029;27;90952;-53
2022/07/11 12:04:47;;;;;;;61.90;51.33;;;25.60;52.00;;;;;;5001494;27;92381;-51
2022/07/11 12:07:13;;;;;;;64.90;51.75;;;25.60;51.40;;;;;;4987498;27;90190;-50
2022/07/11 12:09:50;;;;;;;61.88;51.15;;;25.60;52.60;;;;;;4993014;27;90540;-52
2022/07/11 12:15:06;;;;;;;62.65;51.75;;;25.60;52.50;;;;;;4990756;27;92384;-51
2022/07/11 12:17:32;;;;;;;62.42;51.80;;;25.60;52.30;;;;;;5004252;27;90904;-49
2022/07/11 12:19:58;;;;;;;63.50;52.22;;;25.60;52.80;;;;;;4991354;27;91579;-49
2022/07/11 12:22:25;;;;;;;67.10;52.88;;;25.70;52.40;;;;;;4996898;27;90862;-49
2022/07/11 12:24:52;;;;;;;69.47;53.30;;;25.70;52.50;;;;;;4997074;27;90587;-51
2022/07/11 12:27:19;;;;;;;69.30;53.33;;;25.70;53.60;;;;;;5005361;27;93185;-52
2022/07/11 12:29:50;;;;;;;65.90;52.78;;;25.60;53.80;;;;;;5008012;27;96536;-54
2022/07/11 12:32:15;;;;;;;66.97;53.17;;;25.70;52.80;;;;;;5008377;27;94976;-54
2022/07/11 12:34:43;;;;;;;69.38;53.15;;;25.70;53.00;;;;;;4999857;27;91315;-47
2022/07/11 12:37:09;;;;;;;65.38;52.50;;;25.70;52.50;;;;;;5006550;27;93840;-50
2022/07/11 12:39:41;;;;;;;67.22;52.63;;;25.70;52.20;;;;;;4996072;27;95571;-51
2022/07/11 12:42:33;;;;;;;65.80;52.38;;;25.60;52.20;;;;;;4998580;27;95523;-49
2022/07/11 12:45:10;;;;;;;66.95;52.72;;;25.70;51.90;;;;;;4991317;27;90177;-49
2022/07/11 12:47:39;;;;;;;62.80;51.88;;;25.60;53.60;;;;;;4991404;27;91437;-50